Time;durP1;ratioP1;P1;durP2;ratioP2;P2;SDS_P1;SDS_P2;PMS_P1;PMS_P2;Temp;Humidity;BMP_temperature;BMP_pressure;BME280_temperature;BME280_humidity;BME280_pressure;Samples;Min_cycle;Max_cycle;Signal;HPM_P1;HPM_P2
2021/11/08 00:02:18;;;;;;;11.90;5.00;;;;;;;;;;5018681;28;20186;-76
2021/11/08 00:04:45;;;;;;;9.77;4.57;;;;;;;;;;5039899;28;20186;-76
2021/11/08 00:07:11;;;;;;;5.78;4.25;;;;;;;;;;5022399;28;20739;-76
2021/11/08 00:09:37;;;;;;;11.82;4.75;;;;;;;;;;5011075;28;20753;-76
2021/11/08 00:12:04;;;;;;;12.70;4.78;;;;;;;;;;5018495;28;20202;-76
2021/11/08 00:14:30;;;;;;;13.43;4.75;;;;;;;;;;5041102;28;20187;-76
2021/11/08 00:22:07;;;;;;;9.90;4.00;;;;;;;;;;5013457;28;20404;-76
2021/11/08 00:24:36;;;;;;;5.35;3.72;;;;;;;;;;5023961;28;20182;-76
2021/11/08 00:27:03;;;;;;;8.15;3.35;;;;;;;;;;5018524;28;20178;-76
2021/11/08 00:29:30;;;;;;;8.65;4.15;;;;;;;;;;5019323;28;20206;-76
2021/11/08 00:31:56;;;;;;;6.63;4.00;;;;;;;;;;5021351;28;20690;-76
2021/11/08 00:34:22;;;;;;;9.25;3.90;;;;;;;;;;5020220;28;20237;-76
2021/11/08 00:36:50;;;;;;;19.50;4.63;;;;;;;;;;5024160;28;20178;-76
2021/11/08 00:39:18;;;;;;;10.00;3.80;;;;;;;;;;5017662;28;20193;-76
2021/11/08 00:41:44;;;;;;;10.93;3.50;;;;;;;;;;5019611;28;20179;-76
2021/11/08 00:44:10;;;;;;;5.80;4.00;;;;;;;;;;5017771;28;20563;-76
2021/11/08 00:46:36;;;;;;;5.85;3.53;;;;;;;;;;5018297;28;20278;-76
2021/11/08 00:49:03;;;;;;;6.63;3.38;;;;;;;;;;5019308;28;20179;-76
2021/11/08 00:51:34;;;;;;;11.40;3.92;;;;;;;;;;5035185;28;20206;-75
2021/11/08 00:54:00;;;;;;;11.57;4.30;;;;;;;;;;5018429;28;20253;-76
2021/11/08 00:56:26;;;;;;;13.95;3.67;;;;;;;;;;5039285;28;20185;-76
2021/11/08 00:58:52;;;;;;;7.32;3.90;;;;;;;;;;5018031;28;20182;-76
2021/11/08 01:01:20;;;;;;;9.23;3.45;;;;;;;;;;5020507;28;20195;-75
2021/11/08 01:03:47;;;;;;;5.45;3.67;;;;;;;;;;5021807;28;20185;-76
2021/11/08 01:06:17;;;;;;;6.30;3.42;;;;;;;;;;5018406;28;20198;-76
2021/11/08 01:08:43;;;;;;;7.88;3.53;;;;;;;;;;5019456;28;20174;-76
2021/11/08 01:11:09;;;;;;;8.02;3.65;;;;;;;;;;5017712;28;20257;-76
2021/11/08 01:13:36;;;;;;;5.30;2.90;;;;;;;;;;5037405;28;20186;-76
2021/11/08 01:16:03;;;;;;;7.03;4.13;;;;;;;;;;5017773;28;20178;-76
2021/11/08 01:18:30;;;;;;;4.60;3.80;;;;;;;;;;5019392;28;20197;-76
2021/11/08 01:20:56;;;;;;;4.53;3.15;;;;;;;;;;5018343;28;20182;-75
2021/11/08 01:23:27;;;;;;;10.35;3.78;;;;;;;;;;5039632;28;20250;-75
2021/11/08 01:26:05;;;;;;;8.50;5.32;;;;;;;;;;5017132;28;20191;-75
2021/11/08 01:28:35;;;;;;;7.05;2.80;;;;;;;;;;5019116;28;20281;-75
2021/11/08 01:31:02;;;;;;;6.68;3.42;;;;;;;;;;5022244;28;20198;-75
2021/11/08 01:33:29;;;;;;;8.30;3.80;;;;;;;;;;5021584;28;20640;-75
2021/11/08 01:38:54;;;;;;;10.05;4.18;;;;;;;;;;5019195;28;20174;-75
2021/11/08 01:41:22;;;;;;;6.53;3.05;;;;;;;;;;5017758;28;20186;-75
2021/11/08 01:43:49;;;;;;;11.98;3.60;;;;;;;;;;5018384;28;20186;-75
2021/11/08 01:46:15;;;;;;;7.50;3.28;;;;;;;;;;5017647;28;20225;-75
2021/11/08 01:48:42;;;;;;;15.73;5.07;;;;;;;;;;5022049;28;20181;-75
2021/11/08 01:51:08;;;;;;;7.03;3.00;;;;;;;;;;5016957;28;20230;-76
2021/11/08 01:53:34;;;;;;;7.28;3.08;;;;;;;;;;5023384;28;20205;-76
2021/11/08 01:56:01;;;;;;;7.57;3.55;;;;;;;;;;5023225;28;20221;-76
2021/11/08 01:58:28;;;;;;;5.22;3.15;;;;;;;;;;5018779;28;20183;-75
2021/11/08 02:00:54;;;;;;;6.40;3.70;;;;;;;;;;5022031;28;20182;-75
2021/11/08 02:03:21;;;;;;;9.10;2.60;;;;;;;;;;5017525;28;20183;-76
2021/11/08 02:05:47;;;;;;;14.82;3.70;;;;;;;;;;5038438;28;20307;-76
2021/11/08 02:08:14;;;;;;;10.70;3.00;;;;;;;;;;5017912;28;20178;-76
2021/11/08 02:10:40;;;;;;;7.00;3.25;;;;;;;;;;5018104;28;20679;-76
2021/11/08 02:13:07;;;;;;;9.35;3.60;;;;;;;;;;5035881;28;20182;-76
2021/11/08 02:15:36;;;;;;;10.20;3.20;;;;;;;;;;5014227;28;20785;-76
2021/11/08 02:18:02;;;;;;;7.88;3.05;;;;;;;;;;5016514;28;20178;-76
2021/11/08 02:20:30;;;;;;;17.73;5.05;;;;;;;;;;5018000;28;20170;-76
2021/11/08 02:22:57;;;;;;;10.85;3.58;;;;;;;;;;5018790;28;20189;-76
2021/11/08 02:25:24;;;;;;;7.82;3.90;;;;;;;;;;5019743;28;20261;-76
2021/11/08 02:27:51;;;;;;;4.63;3.08;;;;;;;;;;5015756;28;20190;-76
2021/11/08 02:30:19;;;;;;;10.13;4.50;;;;;;;;;;5054484;28;20181;-76
2021/11/08 02:32:45;;;;;;;9.48;4.53;;;;;;;;;;5042910;28;20217;-76
2021/11/08 02:35:14;;;;;;;12.45;3.97;;;;;;;;;;5020833;28;20186;-76
2021/11/08 02:37:40;;;;;;;6.50;4.05;;;;;;;;;;5022943;28;20277;-76
2021/11/08 02:40:07;;;;;;;12.63;4.55;;;;;;;;;;5024494;28;20182;-76
2021/11/08 02:42:33;;;;;;;6.65;4.32;;;;;;;;;;5019054;28;20187;-76
2021/11/08 02:45:02;;;;;;;11.32;4.25;;;;;;;;;;5019742;28;21376;-76
2021/11/08 02:47:28;;;;;;;8.20;4.00;;;;;;;;;;5053230;28;20178;-76
2021/11/08 02:49:55;;;;;;;12.18;4.95;;;;;;;;;;5022449;28;20203;-76
2021/11/08 02:52:25;;;;;;;7.88;3.42;;;;;;;;;;5031378;28;20218;-76
2021/11/08 02:54:52;;;;;;;6.28;4.43;;;;;;;;;;5025013;28;20542;-76
2021/11/08 02:57:20;;;;;;;7.63;3.90;;;;;;;;;;5022458;28;20198;-76
2021/11/08 02:59:47;;;;;;;6.15;3.58;;;;;;;;;;5019636;28;20186;-76
2021/11/08 03:02:17;;;;;;;11.95;5.13;;;;;;;;;;5020290;28;20183;-76
2021/11/08 03:04:47;;;;;;;8.48;4.20;;;;;;;;;;5035667;28;20213;-76
2021/11/08 03:07:14;;;;;;;9.85;4.18;;;;;;;;;;5023144;28;20595;-76
2021/11/08 03:09:43;;;;;;;9.63;4.55;;;;;;;;;;5024817;28;20190;-76
2021/11/08 03:12:18;;;;;;;10.20;4.07;;;;;;;;;;5018687;28;20238;-76
2021/11/08 03:17:23;;;;;;;10.48;3.97;;;;;;;;;;5023281;28;20202;-76
2021/11/08 03:19:50;;;;;;;6.03;4.05;;;;;;;;;;5040905;28;20187;-76
2021/11/08 03:22:19;;;;;;;11.23;4.55;;;;;;;;;;5020808;28;20191;-76
2021/11/08 03:30:00;;;;;;;7.13;4.05;;;;;;;;;;5023326;28;20182;-75
2021/11/08 03:32:26;;;;;;;8.70;4.75;;;;;;;;;;5021151;28;20194;-76
2021/11/08 03:34:59;;;;;;;6.00;4.00;;;;;;;;;;5019711;28;20660;-76
2021/11/08 03:37:25;;;;;;;9.50;3.60;;;;;;;;;;5021274;28;20567;-76
2021/11/08 03:39:52;;;;;;;8.18;4.93;;;;;;;;;;5025349;28;20228;-76
2021/11/08 03:42:18;;;;;;;7.20;5.00;;;;;;;;;;5017207;28;20198;-76
2021/11/08 03:44:45;;;;;;;8.52;4.07;;;;;;;;;;5041261;28;20186;-76
2021/11/08 03:47:12;;;;;;;8.60;4.32;;;;;;;;;;5023781;28;20589;-76
2021/11/08 03:49:38;;;;;;;11.90;3.90;;;;;;;;;;5019635;28;20246;-76
2021/11/08 03:52:04;;;;;;;7.95;4.40;;;;;;;;;;5023424;28;20214;-76
2021/11/08 03:54:30;;;;;;;7.28;3.80;;;;;;;;;;5021334;28;20193;-75
2021/11/08 03:56:56;;;;;;;7.60;3.85;;;;;;;;;;5018473;28;20205;-75
2021/11/08 03:59:23;;;;;;;9.05;3.95;;;;;;;;;;5020127;28;20203;-76
2021/11/08 04:01:49;;;;;;;3.35;3.05;;;;;;;;;;5027695;28;20643;-76
2021/11/08 04:04:15;;;;;;;7.93;4.22;;;;;;;;;;5022348;28;20195;-76
2021/11/08 04:06:41;;;;;;;7.22;3.22;;;;;;;;;;5017811;28;20207;-76
2021/11/08 04:09:11;;;;;;;6.40;3.35;;;;;;;;;;5018485;28;20178;-76
2021/11/08 04:11:38;;;;;;;6.05;3.97;;;;;;;;;;5039357;28;20249;-75
2021/11/08 04:14:04;;;;;;;6.82;3.78;;;;;;;;;;5018771;28;20174;-76
2021/11/08 04:16:33;;;;;;;4.05;3.25;;;;;;;;;;5019127;28;20249;-75
2021/11/08 04:18:59;;;;;;;4.80;4.07;;;;;;;;;;5020201;28;20189;-76
2021/11/08 04:21:26;;;;;;;4.60;2.95;;;;;;;;;;5034759;28;20182;-76
2021/11/08 04:23:53;;;;;;;4.43;3.33;;;;;;;;;;5008391;28;20587;-76
2021/11/08 04:26:21;;;;;;;4.78;3.67;;;;;;;;;;5019244;28;20234;-76
2021/11/08 04:28:56;;;;;;;7.70;4.28;;;;;;;;;;5020502;28;20190;-76
2021/11/08 04:31:23;;;;;;;6.72;4.30;;;;;;;;;;5039496;28;20201;-76
2021/11/08 04:33:56;;;;;;;7.43;3.92;;;;;;;;;;5023144;28;20178;-76
2021/11/08 04:40:14;;;;;;;8.43;4.10;;;;;;;;;;5022308;28;20262;-76
2021/11/08 04:42:11;;;;;;;10.85;4.40;;;;;;;;;;5021065;28;20269;-75
2021/11/08 04:52:20;;;;;;;7.43;3.50;;;;;;;;;;5022601;28;20249;-76
2021/11/08 05:22:16;;;;;;;10.43;3.72;;;;;;;;;;4998275;28;20481;-75
2021/11/08 05:30:07;;;;;;;7.13;3.83;;;;;;;;;;5001296;28;20251;-75
2021/11/08 05:32:33;;;;;;;6.30;3.95;;;;;;;;;;5000065;28;20265;-75
2021/11/08 05:35:00;;;;;;;5.55;3.60;;;;;;;;;;4998291;28;20179;-75
2021/11/08 05:37:26;;;;;;;4.55;3.13;;;;;;;;;;5000021;28;20250;-75
2021/11/08 05:39:55;;;;;;;7.18;3.85;;;;;;;;;;5016188;28;20194;-75
2021/11/08 05:42:21;;;;;;;6.72;3.10;;;;;;;;;;4998679;28;20183;-75
2021/11/08 05:44:48;;;;;;;9.25;4.00;;;;;;;;;;5002073;28;20230;-75
2021/11/08 05:47:14;;;;;;;5.22;3.20;;;;;;;;;;4996917;28;20194;-75
2021/11/08 05:49:41;;;;;;;4.05;3.65;;;;;;;;;;4997809;28;20278;-75
2021/11/08 05:52:08;;;;;;;12.25;4.20;;;;;;;;;;4998663;28;20282;-75
2021/11/08 05:54:34;;;;;;;7.97;4.15;;;;;;;;;;5014504;28;20187;-75
2021/11/08 06:48:36;;;;;;;4.57;3.15;;;;;;;;;;5017597;28;20746;-75
2021/11/08 06:49:43;;;;;;;7.07;4.13;;;;;;;;;;5022149;28;20270;-75
2021/11/08 06:52:11;;;;;;;5.13;3.58;;;;;;;;;;5016797;28;20702;-75
2021/11/08 06:54:39;;;;;;;4.53;3.60;;;;;;;;;;5018359;28;20171;-75
2021/11/08 06:57:13;;;;;;;6.28;4.00;;;;;;;;;;5021533;28;20174;-75
2021/11/08 06:59:40;;;;;;;5.35;4.30;;;;;;;;;;5017230;28;20167;-75
2021/11/08 07:02:06;;;;;;;6.70;5.13;;;;;;;;;;5017399;28;20175;-75
2021/11/08 07:04:32;;;;;;;7.20;4.13;;;;;;;;;;5018487;28;20186;-75
2021/11/08 07:06:58;;;;;;;4.80;3.83;;;;;;;;;;5021805;28;20206;-75
2021/11/08 07:09:25;;;;;;;7.18;3.90;;;;;;;;;;5017701;28;20198;-75
2021/11/08 07:11:51;;;;;;;8.68;4.50;;;;;;;;;;5018338;28;20201;-75
2021/11/08 07:14:17;;;;;;;15.05;4.35;;;;;;;;;;5015171;28;20183;-76
2021/11/08 07:16:44;;;;;;;7.07;4.72;;;;;;;;;;5016836;28;20214;-75
2021/11/08 07:19:11;;;;;;;8.20;4.57;;;;;;;;;;5019124;28;20179;-75
2021/11/08 07:21:37;;;;;;;9.07;5.05;;;;;;;;;;5037833;28;20178;-75
2021/11/08 07:24:03;;;;;;;6.63;4.35;;;;;;;;;;5019249;28;20178;-75
2021/11/08 07:26:29;;;;;;;9.05;6.57;;;;;;;;;;5052457;28;20658;-75
2021/11/08 07:28:56;;;;;;;8.45;4.80;;;;;;;;;;5021141;28;20194;-75
2021/11/08 07:31:22;;;;;;;5.90;4.50;;;;;;;;;;5031402;28;20675;-75
2021/11/08 07:33:48;;;;;;;7.15;4.68;;;;;;;;;;5024402;28;20611;-76
2021/11/08 07:36:14;;;;;;;12.82;5.03;;;;;;;;;;5018862;28;20874;-76
2021/11/08 07:38:41;;;;;;;6.57;5.15;;;;;;;;;;5021297;28;20229;-75
2021/11/08 07:41:09;;;;;;;16.80;6.20;;;;;;;;;;5022004;28;20190;-75
2021/11/08 07:43:35;;;;;;;7.30;5.00;;;;;;;;;;5023730;28;20202;-75
2021/11/08 07:46:01;;;;;;;7.15;5.68;;;;;;;;;;5013273;28;20226;-76
2021/11/08 07:48:27;;;;;;;9.45;5.20;;;;;;;;;;5018951;28;20194;-77
2021/11/08 07:50:53;;;;;;;7.05;4.47;;;;;;;;;;5024729;28;20544;-77
2021/11/08 07:53:19;;;;;;;10.73;5.07;;;;;;;;;;5037525;28;20199;-77
2021/11/08 07:55:47;;;;;;;15.43;6.85;;;;;;;;;;5046375;28;20259;-77
2021/11/08 07:58:14;;;;;;;10.90;5.93;;;;;;;;;;5021361;28;20199;-77
2021/11/08 08:00:41;;;;;;;8.45;5.32;;;;;;;;;;5052035;28;20658;-77
2021/11/08 08:03:07;;;;;;;9.27;5.75;;;;;;;;;;5020996;28;20589;-77
2021/11/08 08:05:34;;;;;;;8.77;5.43;;;;;;;;;;5039058;28;20182;-79
2021/11/08 08:08:00;;;;;;;8.20;5.60;;;;;;;;;;5018153;28;20194;-80
2021/11/08 08:10:26;;;;;;;9.32;5.80;;;;;;;;;;5020653;28;20241;-77
2021/11/08 08:12:52;;;;;;;7.72;5.47;;;;;;;;;;5020266;28;20183;-77
2021/11/08 08:15:19;;;;;;;4.97;4.20;;;;;;;;;;5035300;28;20178;-77
2021/11/08 08:17:45;;;;;;;10.95;5.40;;;;;;;;;;5019684;28;20270;-77
2021/11/08 08:20:16;;;;;;;6.43;4.82;;;;;;;;;;5034844;28;20175;-77
2021/11/08 08:22:42;;;;;;;9.05;5.68;;;;;;;;;;5024015;28;20617;-77
2021/11/08 08:25:09;;;;;;;8.77;5.97;;;;;;;;;;5019233;28;20191;-77
2021/11/08 08:27:35;;;;;;;12.60;6.78;;;;;;;;;;5020773;28;20190;-78
2021/11/08 08:30:01;;;;;;;8.52;5.65;;;;;;;;;;5053308;28;20188;-77
2021/11/08 08:32:27;;;;;;;10.38;5.68;;;;;;;;;;5020039;28;20625;-77
2021/11/08 08:34:55;;;;;;;8.73;5.05;;;;;;;;;;5019014;28;20206;-77
2021/11/08 08:37:21;;;;;;;6.47;4.85;;;;;;;;;;5021817;28;20190;-77
2021/11/08 08:39:48;;;;;;;12.63;6.70;;;;;;;;;;5019939;28;20807;-77
2021/11/08 08:42:14;;;;;;;13.50;6.38;;;;;;;;;;5021927;28;20485;-77
2021/11/08 08:44:40;;;;;;;7.50;5.28;;;;;;;;;;5019821;28;20174;-77
2021/11/08 08:47:07;;;;;;;12.87;5.93;;;;;;;;;;5018802;28;20218;-78
2021/11/08 08:49:34;;;;;;;21.58;7.40;;;;;;;;;;5020081;28;20453;-77
2021/11/08 08:52:00;;;;;;;15.68;6.80;;;;;;;;;;5019351;28;20236;-77
2021/11/08 08:54:26;;;;;;;11.43;6.30;;;;;;;;;;5034651;28;20179;-77
2021/11/08 08:56:52;;;;;;;16.60;6.63;;;;;;;;;;5018803;28;20201;-77
2021/11/08 08:59:19;;;;;;;12.88;5.72;;;;;;;;;;5022729;28;20193;-77
2021/11/08 09:01:45;;;;;;;10.18;6.40;;;;;;;;;;5019642;28;20182;-77
2021/11/08 09:04:11;;;;;;;12.20;5.70;;;;;;;;;;5018295;28;20190;-77
2021/11/08 09:06:37;;;;;;;8.10;5.80;;;;;;;;;;5020016;28;20202;-77
2021/11/08 09:09:03;;;;;;;12.93;6.30;;;;;;;;;;5017201;28;20202;-77
2021/11/08 09:11:30;;;;;;;15.63;6.68;;;;;;;;;;5038989;28;20205;-77
2021/11/08 09:14:00;;;;;;;10.25;5.55;;;;;;;;;;5019171;28;20190;-77
2021/11/08 09:16:26;;;;;;;12.70;5.93;;;;;;;;;;5014524;28;20186;-77
2021/11/08 09:18:53;;;;;;;9.25;5.38;;;;;;;;;;5020166;28;20240;-77
2021/11/08 09:21:20;;;;;;;13.05;5.50;;;;;;;;;;5021833;28;20269;-76
2021/11/08 09:23:47;;;;;;;11.80;5.90;;;;;;;;;;5051362;28;20178;-77
2021/11/08 09:26:13;;;;;;;7.30;5.13;;;;;;;;;;5018088;28;20288;-77
2021/11/08 09:28:39;;;;;;;11.38;5.97;;;;;;;;;;5038397;28;20190;-77
2021/11/08 09:31:06;;;;;;;9.80;5.28;;;;;;;;;;5021864;28;20206;-77
2021/11/08 09:33:33;;;;;;;9.35;4.88;;;;;;;;;;5021059;28;20182;-77
2021/11/08 09:36:05;;;;;;;10.48;4.82;;;;;;;;;;5019869;28;20233;-77
2021/11/08 09:38:31;;;;;;;9.65;5.82;;;;;;;;;;5036233;28;20638;-77
2021/11/08 09:40:58;;;;;;;13.70;6.22;;;;;;;;;;5017088;28;20292;-77
2021/11/08 09:43:24;;;;;;;14.45;5.38;;;;;;;;;;5021769;28;20182;-76
2021/11/08 09:45:51;;;;;;;10.65;5.72;;;;;;;;;;5015854;28;20230;-76
2021/11/08 09:48:20;;;;;;;16.05;6.00;;;;;;;;;;5022213;28;20726;-77
2021/11/08 09:50:47;;;;;;;29.33;7.70;;;;;;;;;;5018052;28;20202;-76
2021/11/08 09:53:15;;;;;;;10.48;7.28;;;;;;;;;;5016540;28;20659;-77
2021/11/08 09:55:42;;;;;;;16.15;6.35;;;;;;;;;;5015800;28;20183;-76
2021/11/08 09:58:08;;;;;;;15.90;5.45;;;;;;;;;;5021006;28;20201;-76
2021/11/08 10:00:37;;;;;;;12.85;6.70;;;;;;;;;;5018912;28;20179;-76
2021/11/08 10:03:05;;;;;;;10.57;5.38;;;;;;;;;;5016221;28;20270;-76
2021/11/08 10:05:33;;;;;;;15.77;5.72;;;;;;;;;;5050014;28;20206;-76
2021/11/08 10:07:59;;;;;;;17.17;5.50;;;;;;;;;;5019553;28;20186;-76
2021/11/08 10:10:26;;;;;;;10.85;4.82;;;;;;;;;;5049474;28;20851;-76
2021/11/08 10:13:06;;;;;;;16.15;4.50;;;;;;;;;;5022072;28;20217;-76
2021/11/08 10:15:32;;;;;;;7.63;3.88;;;;;;;;;;5018638;28;20186;-76
2021/11/08 10:17:58;;;;;;;12.13;4.97;;;;;;;;;;5018274;28;20193;-77
2021/11/08 10:20:31;;;;;;;13.93;5.00;;;;;;;;;;5013408;28;20179;-77
2021/11/08 10:22:58;;;;;;;12.40;4.10;;;;;;;;;;5053553;28;20433;-77
2021/11/08 10:25:24;;;;;;;10.85;4.13;;;;;;;;;;5019323;28;20189;-77
2021/11/08 10:27:51;;;;;;;11.35;4.07;;;;;;;;;;5021023;28;20201;-77
2021/11/08 10:30:29;;;;;;;16.20;3.78;;;;;;;;;;5021686;28;25265;-76
2021/11/08 10:33:08;;;;;;;7.40;3.00;;;;;;;;;;5031296;28;20206;-76
2021/11/08 10:35:49;;;;;;;15.05;4.35;;;;;;;;;;5037201;28;20630;-77
2021/11/08 10:38:23;;;;;;;15.48;4.80;;;;;;;;;;5018186;28;20186;-77
2021/11/08 10:40:54;;;;;;;9.65;4.60;;;;;;;;;;5016756;28;20487;-77
2021/11/08 10:43:24;;;;;;;6.95;3.40;;;;;;;;;;5019964;28;20195;-77
2021/11/08 10:45:51;;;;;;;10.23;4.10;;;;;;;;;;5020429;28;20226;-77
2021/11/08 10:48:25;;;;;;;15.48;4.28;;;;;;;;;;5048120;28;20206;-78
2021/11/08 10:50:52;;;;;;;11.02;3.45;;;;;;;;;;5023091;28;20214;-77
2021/11/08 10:53:19;;;;;;;7.70;3.53;;;;;;;;;;5024964;28;20186;-77
2021/11/08 10:55:48;;;;;;;6.68;2.75;;;;;;;;;;5023116;28;20186;-78
2021/11/08 10:58:15;;;;;;;12.48;3.30;;;;;;;;;;5037981;28;20193;-79
2021/11/08 11:00:48;;;;;;;5.78;2.80;;;;;;;;;;5054075;28;20186;-78
2021/11/08 11:03:17;;;;;;;9.55;2.70;;;;;;;;;;5020453;28;21717;-78
2021/11/08 11:05:44;;;;;;;7.75;3.42;;;;;;;;;;5042338;28;20265;-78
2021/11/08 11:08:14;;;;;;;14.35;4.07;;;;;;;;;;5020631;28;20187;-78
2021/11/08 11:10:42;;;;;;;9.70;3.67;;;;;;;;;;5025185;28;20178;-76
2021/11/08 11:13:12;;;;;;;6.45;2.65;;;;;;;;;;5019604;28;20182;-77
2021/11/08 11:15:40;;;;;;;12.07;2.97;;;;;;;;;;5038738;28;20178;-77
2021/11/08 11:18:08;;;;;;;8.68;2.55;;;;;;;;;;5038934;28;20538;-77
2021/11/08 11:20:37;;;;;;;9.13;3.40;;;;;;;;;;5018540;28;20175;-77
2021/11/08 11:23:05;;;;;;;7.57;2.30;;;;;;;;;;5037057;28;20179;-76
2021/11/08 11:25:32;;;;;;;5.75;2.00;;;;;;;;;;5017625;28;20187;-77
2021/11/08 11:28:00;;;;;;;9.15;2.47;;;;;;;;;;5024426;28;20258;-77
2021/11/08 11:30:29;;;;;;;7.18;1.75;;;;;;;;;;5020929;28;20202;-77
2021/11/08 11:32:55;;;;;;;8.80;2.30;;;;;;;;;;5019737;28;20252;-77
2021/11/08 11:35:22;;;;;;;11.70;3.17;;;;;;;;;;5026745;28;20171;-77
2021/11/08 11:37:56;;;;;;;15.82;3.25;;;;;;;;;;5020766;28;20452;-77
2021/11/08 11:40:22;;;;;;;8.63;2.33;;;;;;;;;;5022166;28;20193;-77
2021/11/08 11:42:52;;;;;;;7.60;2.97;;;;;;;;;;5018782;28;20217;-77
2021/11/08 11:45:18;;;;;;;7.32;3.25;;;;;;;;;;5021466;28;20488;-77
2021/11/08 11:47:55;;;;;;;8.02;2.60;;;;;;;;;;5021149;28;20197;-77
2021/11/08 11:50:22;;;;;;;8.05;3.00;;;;;;;;;;5019768;28;20175;-76
2021/11/08 11:52:48;;;;;;;7.25;2.75;;;;;;;;;;5018895;28;20218;-77
2021/11/08 11:55:14;;;;;;;11.63;2.83;;;;;;;;;;5021296;28;20178;-76
2021/11/08 11:57:40;;;;;;;6.17;2.63;;;;;;;;;;5023663;28;20186;-77
2021/11/08 12:00:08;;;;;;;8.05;2.50;;;;;;;;;;5019698;28;20424;-77
2021/11/08 12:02:34;;;;;;;8.02;2.22;;;;;;;;;;5054545;28;20186;-77
2021/11/08 12:05:00;;;;;;;5.00;2.03;;;;;;;;;;5022047;28;20269;-78
2021/11/08 12:07:26;;;;;;;8.45;2.53;;;;;;;;;;5030214;28;20190;-77
2021/11/08 12:09:53;;;;;;;7.70;2.38;;;;;;;;;;5025069;28;20193;-79
2021/11/08 12:12:26;;;;;;;5.13;2.10;;;;;;;;;;5023935;28;20217;-77
2021/11/08 12:14:56;;;;;;;10.55;2.80;;;;;;;;;;5040523;28;20270;-77
2021/11/08 12:17:22;;;;;;;9.68;2.88;;;;;;;;;;5034652;28;20183;-76
2021/11/08 12:19:49;;;;;;;8.35;3.10;;;;;;;;;;5037570;28;20498;-76
2021/11/08 12:22:16;;;;;;;8.15;2.60;;;;;;;;;;5019319;28;20869;-77
2021/11/08 12:24:43;;;;;;;8.77;2.65;;;;;;;;;;5020112;28;20183;-76
2021/11/08 12:27:10;;;;;;;12.02;3.03;;;;;;;;;;5017449;28;20182;-77
2021/11/08 12:29:47;;;;;;;9.32;3.45;;;;;;;;;;5019799;28;20200;-78
2021/11/08 12:32:13;;;;;;;10.75;2.70;;;;;;;;;;5016776;28;20233;-76
2021/11/08 12:34:40;;;;;;;10.50;2.60;;;;;;;;;;5016682;28;20183;-78
2021/11/08 12:37:06;;;;;;;12.30;2.55;;;;;;;;;;5018193;28;20174;-77
2021/11/08 12:39:33;;;;;;;5.63;1.85;;;;;;;;;;5012326;28;20198;-77
2021/11/08 12:42:02;;;;;;;8.95;2.50;;;;;;;;;;5020491;28;20178;-76
2021/11/08 12:44:37;;;;;;;6.22;2.40;;;;;;;;;;5019155;28;20186;-77
2021/11/08 12:47:03;;;;;;;8.88;3.42;;;;;;;;;;5017657;28;20217;-76
2021/11/08 12:49:29;;;;;;;6.70;2.75;;;;;;;;;;5018939;28;20269;-77
2021/11/08 12:52:00;;;;;;;9.87;2.50;;;;;;;;;;5023096;28;20698;-77
2021/11/08 12:54:27;;;;;;;6.88;2.33;;;;;;;;;;5019199;28;20798;-77
2021/11/08 12:56:54;;;;;;;11.05;2.45;;;;;;;;;;5022299;28;20232;-76
2021/11/08 12:59:26;;;;;;;8.70;3.15;;;;;;;;;;5020345;28;20190;-77
2021/11/08 13:02:08;;;;;;;9.55;2.95;;;;;;;;;;5047827;28;20660;-78
2021/11/08 13:04:44;;;;;;;11.38;3.65;;;;;;;;;;5021075;28;20186;-77
2021/11/08 13:07:12;;;;;;;12.15;3.30;;;;;;;;;;5033287;28;20185;-78
2021/11/08 13:09:39;;;;;;;4.60;2.38;;;;;;;;;;5035573;28;20187;-78
2021/11/08 13:12:11;;;;;;;7.00;2.00;;;;;;;;;;5022594;28;20230;-78
2021/11/08 13:14:37;;;;;;;8.30;2.75;;;;;;;;;;5020828;28;20171;-77
2021/11/08 13:17:06;;;;;;;7.90;3.10;;;;;;;;;;5022185;28;20171;-77
2021/11/08 13:19:34;;;;;;;5.40;2.10;;;;;;;;;;5019990;28;20581;-78
2021/11/08 13:22:10;;;;;;;9.05;3.20;;;;;;;;;;5022013;28;20193;-78
2021/11/08 13:24:36;;;;;;;8.75;2.85;;;;;;;;;;5016931;28;20182;-77
2021/11/08 13:27:02;;;;;;;8.27;3.00;;;;;;;;;;5018135;28;20178;-79
2021/11/08 13:29:28;;;;;;;5.85;3.35;;;;;;;;;;5052827;28;20240;-78
2021/11/08 13:31:54;;;;;;;14.00;3.10;;;;;;;;;;5048079;28;20272;-79
2021/11/08 13:34:20;;;;;;;8.88;3.65;;;;;;;;;;5019876;28;20189;-76
2021/11/08 13:36:47;;;;;;;5.60;2.67;;;;;;;;;;5022301;28;20189;-79
2021/11/08 13:39:14;;;;;;;9.30;3.80;;;;;;;;;;5017387;28;20171;-78
2021/11/08 13:41:40;;;;;;;7.57;3.08;;;;;;;;;;5038621;28;20444;-78
2021/11/08 13:44:10;;;;;;;7.00;2.67;;;;;;;;;;5019301;28;20191;-79
2021/11/08 13:46:46;;;;;;;8.35;3.40;;;;;;;;;;5021403;28;20215;-78
2021/11/08 13:49:14;;;;;;;11.73;2.88;;;;;;;;;;5029574;28;20183;-77
2021/11/08 13:51:46;;;;;;;9.93;2.83;;;;;;;;;;5023203;28;20269;-77
2021/11/08 13:54:14;;;;;;;11.63;2.42;;;;;;;;;;5019140;28;20406;-80
2021/11/08 13:56:48;;;;;;;10.75;2.50;;;;;;;;;;5038984;28;20266;-77
2021/11/08 13:59:25;;;;;;;9.75;2.78;;;;;;;;;;5037770;28;20213;-79
2021/11/08 14:02:01;;;;;;;5.82;2.55;;;;;;;;;;5017458;28;20210;-78
2021/11/08 14:04:34;;;;;;;10.98;3.30;;;;;;;;;;5017242;28;20182;-79
2021/11/08 14:07:02;;;;;;;7.05;2.08;;;;;;;;;;5051520;28;20547;-79
2021/11/08 14:09:28;;;;;;;5.93;1.92;;;;;;;;;;5035682;28;20179;-78
2021/11/08 14:11:55;;;;;;;6.70;3.38;;;;;;;;;;5013760;28;20232;-78
2021/11/08 14:14:23;;;;;;;8.27;2.30;;;;;;;;;;5020934;28;20215;-75
2021/11/08 14:16:51;;;;;;;5.25;2.25;;;;;;;;;;5016389;28;20269;-76
2021/11/08 14:19:18;;;;;;;9.40;2.83;;;;;;;;;;5020027;28;20194;-77
2021/11/08 14:21:45;;;;;;;6.85;2.50;;;;;;;;;;5020586;28;20191;-76
2021/11/08 14:24:13;;;;;;;5.82;2.28;;;;;;;;;;5015995;28;20254;-77
2021/11/08 14:26:40;;;;;;;6.72;2.15;;;;;;;;;;5039848;28;20189;-77
2021/11/08 14:29:11;;;;;;;7.75;2.28;;;;;;;;;;5021047;28;20186;-77
2021/11/08 14:31:37;;;;;;;5.93;2.05;;;;;;;;;;5041458;28;20229;-77
2021/11/08 14:34:06;;;;;;;11.02;2.72;;;;;;;;;;5020067;28;20218;-77
2021/11/08 14:36:33;;;;;;;8.10;2.75;;;;;;;;;;5027130;28;20189;-76
2021/11/08 14:39:02;;;;;;;5.88;2.35;;;;;;;;;;5021737;28;20173;-77
2021/11/08 14:41:32;;;;;;;8.57;2.40;;;;;;;;;;5041382;28;20181;-76
2021/11/08 14:44:00;;;;;;;6.40;1.90;;;;;;;;;;5023446;28;20191;-75
2021/11/08 14:46:37;;;;;;;8.60;2.30;;;;;;;;;;5023385;28;20625;-76
2021/11/08 14:49:15;;;;;;;6.40;2.60;;;;;;;;;;5026219;28;20180;-77
2021/11/08 14:51:42;;;;;;;10.35;2.97;;;;;;;;;;5023902;28;20470;-77
2021/11/08 14:54:08;;;;;;;12.00;2.63;;;;;;;;;;5019804;28;20206;-76
2021/11/08 14:56:36;;;;;;;12.70;3.25;;;;;;;;;;5021520;28;20178;-77
2021/11/08 14:59:07;;;;;;;8.85;2.28;;;;;;;;;;5020621;28;20175;-77
2021/11/08 15:01:33;;;;;;;6.90;2.60;;;;;;;;;;5021716;28;20183;-76
2021/11/08 15:04:21;;;;;;;12.68;3.13;;;;;;;;;;5022335;28;20647;-77
2021/11/08 15:07:03;;;;;;;5.13;2.13;;;;;;;;;;5023967;28;20186;-77
2021/11/08 15:09:42;;;;;;;6.65;2.60;;;;;;;;;;5036292;28;20178;-77
2021/11/08 15:12:17;;;;;;;8.43;2.90;;;;;;;;;;5020422;28;20204;-77
2021/11/08 15:14:47;;;;;;;7.20;2.05;;;;;;;;;;5041265;28;20549;-77
2021/11/08 15:17:13;;;;;;;3.38;2.22;;;;;;;;;;5021093;28;20668;-76
2021/11/08 15:19:45;;;;;;;7.65;2.42;;;;;;;;;;5022941;28;20586;-77
2021/11/08 15:22:11;;;;;;;7.93;2.30;;;;;;;;;;5024017;28;20233;-76
2021/11/08 15:24:37;;;;;;;6.47;2.22;;;;;;;;;;5022319;28;20190;-76
2021/11/08 15:27:03;;;;;;;7.68;2.45;;;;;;;;;;5019294;28;20179;-76
2021/11/08 15:29:32;;;;;;;4.32;2.13;;;;;;;;;;5020661;28;20174;-76
2021/11/08 15:31:59;;;;;;;5.63;2.22;;;;;;;;;;5040559;28;20202;-76
2021/11/08 15:34:27;;;;;;;11.98;3.28;;;;;;;;;;5021803;28;20186;-76
2021/11/08 15:36:55;;;;;;;6.82;2.67;;;;;;;;;;5021467;28;20242;-77
2021/11/08 15:39:28;;;;;;;6.57;2.45;;;;;;;;;;5018310;28;20174;-77
2021/11/08 15:41:54;;;;;;;8.10;2.13;;;;;;;;;;5022134;28;20179;-77
2021/11/08 15:44:20;;;;;;;5.65;2.15;;;;;;;;;;5021391;28;20193;-77
2021/11/08 15:46:46;;;;;;;7.77;2.20;;;;;;;;;;5022274;28;20222;-76
2021/11/08 15:49:13;;;;;;;6.10;2.50;;;;;;;;;;5023461;28;20500;-77
2021/11/08 15:51:41;;;;;;;7.97;2.13;;;;;;;;;;5017475;28;20446;-77
2021/11/08 15:54:08;;;;;;;8.45;2.00;;;;;;;;;;5017055;28;20175;-77
2021/11/08 15:56:35;;;;;;;7.55;2.30;;;;;;;;;;5041065;28;20245;-77
2021/11/08 15:59:01;;;;;;;4.80;2.70;;;;;;;;;;5020561;28;20185;-77
2021/11/08 16:01:27;;;;;;;7.28;2.95;;;;;;;;;;5019289;28;20734;-79
2021/11/08 16:03:54;;;;;;;10.13;4.10;;;;;;;;;;5039554;28;20205;-79
2021/11/08 16:06:20;;;;;;;6.63;2.85;;;;;;;;;;5024572;28;20311;-79
2021/11/08 16:08:47;;;;;;;5.05;2.40;;;;;;;;;;5037144;28;20190;-78
2021/11/08 16:11:12;;;;;;;11.18;3.50;;;;;;;;;;5021936;28;20198;-78
2021/11/08 16:13:39;;;;;;;10.38;4.25;;;;;;;;;;5018441;28;20183;-79
2021/11/08 16:16:05;;;;;;;5.10;2.63;;;;;;;;;;5018230;28;20182;-79
2021/11/08 16:18:31;;;;;;;11.23;3.33;;;;;;;;;;5036200;28;20179;-78
2021/11/08 16:20:57;;;;;;;6.10;3.07;;;;;;;;;;5039019;28;20213;-78
2021/11/08 16:23:24;;;;;;;4.57;2.15;;;;;;;;;;5051624;28;20433;-78
2021/11/08 16:25:54;;;;;;;6.10;3.50;;;;;;;;;;5021274;28;20171;-78
2021/11/08 16:28:22;;;;;;;9.25;4.18;;;;;;;;;;5018073;28;20191;-78
2021/11/08 16:30:48;;;;;;;7.93;4.28;;;;;;;;;;5020007;28;20185;-79
2021/11/08 16:33:14;;;;;;;14.05;5.10;;;;;;;;;;5019566;28;20181;-79